CheckWX is a tool to help pilots better visualize weather data.  It is not intended as a substitute for an official pre-flight weather briefing.

18:55:30 UTC

PAOM METAR
Nome Airport
Nome, Alaska, USA
Current

1 hour ago

PAOM 171753Z 00000KT 10SM SCT090 M06/M08 A2924 RMK AO2 SLP902 T10561078 11050 21067 53003 $
Observed
Oct-17 @ 17:53 UTC
Visibility
10 SM
Flight Rules
VFR
Cloud Levels
  • Scattered at 9,000' AGL
Temperature
-6°C / 21°F
Dewpoint
-8°C / 18°F
Humidity
86%
Altimeter
29.24" Hg
Pressure
990.22 hPa
Previous

2 hours ago

PAOM 171653Z 00000KT 10SM BKN095 M07/M08 A2924 RMK AO2 SLP901 T10671083 $
Observed
Oct-17 @ 16:53 UTC
Visibility
10 SM
Flight Rules
VFR
Cloud Levels
  • Broken at 9,500' AGL
Temperature
-7°C / 19°F
Dewpoint
-8°C / 18°F
Humidity
93%
Altimeter
29.24" Hg
Pressure
990.22 hPa
Previous

3 hours ago

PAOM 171553Z 36003KT 10SM FEW095 M06/M08 A2923 RMK AO2 SLP899 T10611083 $
Observed
Oct-17 @ 15:53 UTC
Wind
  • 360° at 3 KTS
Visibility
10 SM
Flight Rules
VFR
Cloud Levels
  • Few at 9,500' AGL
Temperature
-6°C / 21°F
Dewpoint
-8°C / 18°F
Humidity
86%
Altimeter
29.23" Hg
Pressure
989.82 hPa